This is the latest recevied weather packets stored in our database for station/object KB3AWQ. If no packets are shown the sender has not sent any weather packets the latest 10 day(s).
| Time | Temp. | Humidity | Pressure | Rain* | Wind** | Luminosity | Snow |
|---|---|---|---|---|---|---|---|
| 1778102067 | 13.33° C | 92% | 1008.7 hPa | 0.25 mm | - | 57 W/m² | - |
| 1778101767 | 13.33° C | 94% | 1008.6 hPa | 0.25 mm | - | 54 W/m² | - |
| 1778101466 | 13.33° C | 94% | 1008.5 hPa | 0.25 mm | - | 33 W/m² | - |
| 1778101168 | 13.33° C | 95% | 1008.5 hPa | 0.25 mm | - | 20 W/m² | - |
| 1778100866 | 13.33° C | 95% | 1008.3 hPa | 0 mm | - | 28 W/m² | - |
| 1778100567 | 13.33° C | 95% | 1008.2 hPa | 0 mm | - | 36 W/m² | - |
| 1778100267 | 13.33° C | 95% | 1008.1 hPa | 0 mm | - | 30 W/m² | - |
| 1778099966 | 13.33° C | 95% | 1008 hPa | 0 mm | - | 27 W/m² | - |
| 1778099666 | 13.89° C | 95% | 1007.8 hPa | 0 mm | - | 20 W/m² | - |
| 1778099366 | 14.44° C | 94% | 1007.5 hPa | 0 mm | - | 25 W/m² | - |
| 1778099067 | 14.44° C | 94% | 1007.3 hPa | 0 mm | - | 33 W/m² | - |
| 1778098766 | 15° C | 92% | 1007.2 hPa | 0 mm | - | 47 W/m² | - |
| 1778098467 | 15.56° C | 91% | 1007.1 hPa | 0 mm | - | 41 W/m² | - |
| 1778098167 | 16.11° C | 88% | 1007 hPa | 0 mm | - | 67 W/m² | - |
| 1778097867 | 17.22° C | 86% | 1007.1 hPa | 0 mm | - | 28 W/m² | - |
| 1778097566 | 17.22° C | 90% | 1006.7 hPa | 0 mm | - | 114 W/m² | - |
| 1778097269 | 17.22° C | 90% | 1006.6 hPa | 0 mm | - | 110 W/m² | - |
| 1778096966 | 17.22° C | 90% | 1006.6 hPa | 0 mm | - | 138 W/m² | - |
| 1778096667 | 17.22° C | 91% | 1006.7 hPa | 0 mm | - | 154 W/m² | - |
| 1778096367 | 17.22° C | 92% | 1006.7 hPa | 0 mm | - | 213 W/m² | - |
| 1778096068 | 17.22° C | 93% | 1006.7 hPa | 0 mm | - | 200 W/m² | - |
| 1778095769 | 17.22° C | 93% | 1006.7 hPa | 0 mm | - | 185 W/m² | - |
| 1778095467 | 17.22° C | 93% | 1006.8 hPa | 0 mm | - | 108 W/m² | - |
| 1778095168 | 17.22° C | 94% | 1006.8 hPa | 0 mm | - | 120 W/m² | - |
| 1778094868 | 17.22° C | 94% | 1006.7 hPa | 0 mm | - | 142 W/m² | - |
* Rain latest hour (hover to see other rain measurements)
** Current wind speed in m/s (hover to see current wind gust speed)